Terminal Aerodrome Forecast
Issued by NWS

Home | Current Version | Previous Version | Text Only | Print | Product List | Glossary On
Versions: 1 2 3 4 5 6 7 8 9 10 11 12 13 14 15 16
524
FTPA31 PHFO 292206 AAD
TAFHOG
TAF AMD
PHOG 292206Z 2922/3018 31007KT 3SM SHRA BR SCT025 OVC040
      TEMPO 2922/2924 36010G16KT 1 1/2SM +SHRA SCT005 BKN020 OVC035
     FM300400 34007KT P6SM VCSH SCT025 OVC040
     FM300800 14007KT P6SM -SHRA VCTS BKN020CB OVC035=

USA.gov is the U.S. government's official web portal to all federal, state and local government web resources and services.